sensor_id;sensor_type;location;lat;lon;timestamp;P1;durP1;ratioP1;P2;durP2;ratioP2
36185;SDS011;22228;53.222;7.446;2022-12-07T00:00:04;15.07;;;8.13;;
36185;SDS011;22228;53.222;7.446;2022-12-07T00:02:26;17.97;;;8.63;;
36185;SDS011;22228;53.222;7.446;2022-12-07T00:04:48;10.23;;;8.03;;
36185;SDS011;22228;53.222;7.446;2022-12-07T00:07:08;13.77;;;7.93;;
36185;SDS011;22228;53.222;7.446;2022-12-07T00:09:28;13.73;;;7.70;;
36185;SDS011;22228;53.222;7.446;2022-12-07T00:11:50;15.63;;;7.43;;
36185;SDS011;22228;53.222;7.446;2022-12-07T00:14:12;13.50;;;8.60;;
36185;SDS011;22228;53.222;7.446;2022-12-07T00:16:34;11.47;;;8.07;;
36185;SDS011;22228;53.222;7.446;2022-12-07T00:18:55;18.03;;;8.83;;
36185;SDS011;22228;53.222;7.446;2022-12-07T00:21:19;14.60;;;8.30;;
36185;SDS011;22228;53.222;7.446;2022-12-07T00:23:41;12.53;;;7.93;;
36185;SDS011;22228;53.222;7.446;2022-12-07T00:26:04;12.83;;;7.70;;
36185;SDS011;22228;53.222;7.446;2022-12-07T00:28:25;15.40;;;8.23;;
36185;SDS011;22228;53.222;7.446;2022-12-07T00:30:46;15.03;;;7.53;;
36185;SDS011;22228;53.222;7.446;2022-12-07T00:33:06;12.90;;;6.83;;
36185;SDS011;22228;53.222;7.446;2022-12-07T00:35:27;14.67;;;8.07;;
36185;SDS011;22228;53.222;7.446;2022-12-07T00:37:49;12.87;;;6.87;;
36185;SDS011;22228;53.222;7.446;2022-12-07T00:40:09;11.40;;;6.73;;
36185;SDS011;22228;53.222;7.446;2022-12-07T00:42:30;9.40;;;6.50;;
36185;SDS011;22228;53.222;7.446;2022-12-07T00:44:51;16.67;;;7.80;;
36185;SDS011;22228;53.222;7.446;2022-12-07T00:47:11;14.33;;;8.03;;
36185;SDS011;22228;53.222;7.446;2022-12-07T00:49:32;13.57;;;7.10;;
36185;SDS011;22228;53.222;7.446;2022-12-07T00:51:52;10.87;;;6.57;;
36185;SDS011;22228;53.222;7.446;2022-12-07T00:54:14;10.43;;;5.63;;
36185;SDS011;22228;53.222;7.446;2022-12-07T00:56:35;12.20;;;4.97;;
36185;SDS011;22228;53.222;7.446;2022-12-07T00:58:56;10.40;;;4.40;;
36185;SDS011;22228;53.222;7.446;2022-12-07T01:01:17;13.40;;;4.77;;
36185;SDS011;22228;53.222;7.446;2022-12-07T01:03:38;12.43;;;4.17;;
36185;SDS011;22228;53.222;7.446;2022-12-07T01:05:59;7.47;;;2.93;;
36185;SDS011;22228;53.222;7.446;2022-12-07T01:08:19;7.77;;;2.73;;
36185;SDS011;22228;53.222;7.446;2022-12-07T01:10:42;8.43;;;2.57;;
36185;SDS011;22228;53.222;7.446;2022-12-07T01:13:02;9.63;;;2.47;;
36185;SDS011;22228;53.222;7.446;2022-12-07T04:01:18;4.67;;;0.60;;
36185;SDS011;22228;53.222;7.446;2022-12-07T04:03:39;3.93;;;1.33;;
36185;SDS011;22228;53.222;7.446;2022-12-07T04:06:00;5.37;;;0.70;;
36185;SDS011;22228;53.222;7.446;2022-12-07T04:08:20;7.33;;;0.90;;
36185;SDS011;22228;53.222;7.446;2022-12-07T04:10:41;8.13;;;0.70;;
36185;SDS011;22228;53.222;7.446;2022-12-07T04:13:02;11.00;;;1.10;;
36185;SDS011;22228;53.222;7.446;2022-12-07T04:15:22;5.87;;;0.70;;
36185;SDS011;22228;53.222;7.446;2022-12-07T04:17:44;5.50;;;1.00;;
36185;SDS011;22228;53.222;7.446;2022-12-07T04:20:05;9.93;;;1.40;;
36185;SDS011;22228;53.222;7.446;2022-12-07T04:22:27;6.10;;;1.17;;
36185;SDS011;22228;53.222;7.446;2022-12-07T04:24:47;4.13;;;0.90;;
36185;SDS011;22228;53.222;7.446;2022-12-07T04:27:08;3.30;;;0.90;;
36185;SDS011;22228;53.222;7.446;2022-12-07T04:29:29;3.37;;;0.60;;
36185;SDS011;22228;53.222;7.446;2022-12-07T04:31:49;7.30;;;1.10;;
36185;SDS011;22228;53.222;7.446;2022-12-07T04:34:11;3.87;;;0.73;;
36185;SDS011;22228;53.222;7.446;2022-12-07T04:36:33;4.37;;;1.13;;
36185;SDS011;22228;53.222;7.446;2022-12-07T04:38:53;5.80;;;0.90;;
36185;SDS011;22228;53.222;7.446;2022-12-07T04:41:14;5.57;;;0.83;;
36185;SDS011;22228;53.222;7.446;2022-12-07T04:43:34;6.90;;;0.90;;
36185;SDS011;22228;53.222;7.446;2022-12-07T04:45:55;3.50;;;0.60;;
36185;SDS011;22228;53.222;7.446;2022-12-07T04:48:16;5.70;;;0.70;;
36185;SDS011;22228;53.222;7.446;2022-12-07T04:50:38;2.23;;;0.60;;
36185;SDS011;22228;53.222;7.446;2022-12-07T04:52:58;6.60;;;0.80;;
36185;SDS011;22228;53.222;7.446;2022-12-07T04:55:19;3.00;;;0.50;;
36185;SDS011;22228;53.222;7.446;2022-12-07T04:57:39;5.77;;;0.70;;
36185;SDS011;22228;53.222;7.446;2022-12-07T05:00:00;3.33;;;0.60;;
36185;SDS011;22228;53.222;7.446;2022-12-07T05:02:20;2.33;;;0.53;;
36185;SDS011;22228;53.222;7.446;2022-12-07T05:04:41;2.30;;;0.60;;
36185;SDS011;22228;53.222;7.446;2022-12-07T05:07:03;2.77;;;0.80;;
36185;SDS011;22228;53.222;7.446;2022-12-07T05:09:23;2.03;;;0.43;;
36185;SDS011;22228;53.222;7.446;2022-12-07T05:11:44;6.07;;;0.60;;
36185;SDS011;22228;53.222;7.446;2022-12-07T05:14:05;1.90;;;0.50;;
36185;SDS011;22228;53.222;7.446;2022-12-07T05:16:27;3.47;;;0.60;;
36185;SDS011;22228;53.222;7.446;2022-12-07T05:18:48;4.03;;;0.60;;
36185;SDS011;22228;53.222;7.446;2022-12-07T05:21:09;6.50;;;0.70;;
36185;SDS011;22228;53.222;7.446;2022-12-07T05:23:31;3.73;;;0.50;;
36185;SDS011;22228;53.222;7.446;2022-12-07T05:25:51;5.70;;;1.17;;
36185;SDS011;22228;53.222;7.446;2022-12-07T05:28:12;4.17;;;0.60;;
36185;SDS011;22228;53.222;7.446;2022-12-07T05:30:32;4.33;;;0.50;;
36185;SDS011;22228;53.222;7.446;2022-12-07T05:32:53;6.23;;;1.77;;
36185;SDS011;22228;53.222;7.446;2022-12-07T05:35:14;3.57;;;0.90;;
36185;SDS011;22228;53.222;7.446;2022-12-07T05:37:34;6.10;;;1.60;;
36185;SDS011;22228;53.222;7.446;2022-12-07T05:39:56;2.97;;;0.90;;
36185;SDS011;22228;53.222;7.446;2022-12-07T05:42:17;2.40;;;0.83;;
36185;SDS011;22228;53.222;7.446;2022-12-07T05:44:37;4.83;;;0.80;;
36185;SDS011;22228;53.222;7.446;2022-12-07T05:46:58;3.87;;;0.57;;
36185;SDS011;22228;53.222;7.446;2022-12-07T05:49:18;3.53;;;0.53;;
36185;SDS011;22228;53.222;7.446;2022-12-07T05:51:39;5.57;;;0.70;;
36185;SDS011;22228;53.222;7.446;2022-12-07T05:54:00;5.10;;;0.50;;
36185;SDS011;22228;53.222;7.446;2022-12-07T05:56:22;3.80;;;0.53;;
36185;SDS011;22228;53.222;7.446;2022-12-07T05:58:43;2.47;;;0.70;;
36185;SDS011;22228;53.222;7.446;2022-12-07T06:01:21;3.40;;;0.70;;
36185;SDS011;22228;53.222;7.446;2022-12-07T06:03:41;1.77;;;0.63;;
36185;SDS011;22228;53.222;7.446;2022-12-07T06:06:01;1.73;;;0.50;;
36185;SDS011;22228;53.222;7.446;2022-12-07T06:08:22;2.00;;;0.60;;
36185;SDS011;22228;53.222;7.446;2022-12-07T06:10:43;3.43;;;0.40;;
36185;SDS011;22228;53.222;7.446;2022-12-07T06:13:05;4.57;;;0.90;;
36185;SDS011;22228;53.222;7.446;2022-12-07T06:15:24;5.27;;;0.90;;
36185;SDS011;22228;53.222;7.446;2022-12-07T06:17:45;6.20;;;0.50;;
36185;SDS011;22228;53.222;7.446;2022-12-07T06:20:06;3.00;;;0.70;;
36185;SDS011;22228;53.222;7.446;2022-12-07T06:22:26;3.43;;;0.60;;
36185;SDS011;22228;53.222;7.446;2022-12-07T06:24:47;3.50;;;0.50;;
36185;SDS011;22228;53.222;7.446;2022-12-07T06:27:07;7.03;;;0.87;;
36185;SDS011;22228;53.222;7.446;2022-12-07T06:29:29;3.97;;;0.67;;
36185;SDS011;22228;53.222;7.446;2022-12-07T06:31:50;2.00;;;0.70;;
36185;SDS011;22228;53.222;7.446;2022-12-07T06:34:11;4.90;;;0.77;;
36185;SDS011;22228;53.222;7.446;2022-12-07T06:36:33;4.33;;;0.70;;
36185;SDS011;22228;53.222;7.446;2022-12-07T06:38:54;4.40;;;0.70;;
36185;SDS011;22228;53.222;7.446;2022-12-07T06:41:15;4.27;;;1.03;;
36185;SDS011;22228;53.222;7.446;2022-12-07T06:43:35;7.83;;;0.83;;
36185;SDS011;22228;53.222;7.446;2022-12-07T06:45:57;5.17;;;0.80;;
36185;SDS011;22228;53.222;7.446;2022-12-07T06:48:18;5.17;;;0.87;;
36185;SDS011;22228;53.222;7.446;2022-12-07T06:50:38;5.90;;;1.20;;
36185;SDS011;22228;53.222;7.446;2022-12-07T06:52:58;3.67;;;0.70;;
36185;SDS011;22228;53.222;7.446;2022-12-07T06:55:19;2.33;;;1.43;;
36185;SDS011;22228;53.222;7.446;2022-12-07T06:57:39;8.60;;;1.30;;
36185;SDS011;22228;53.222;7.446;2022-12-07T07:00:00;3.17;;;0.80;;
36185;SDS011;22228;53.222;7.446;2022-12-07T07:02:22;4.33;;;0.80;;
36185;SDS011;22228;53.222;7.446;2022-12-07T07:04:42;4.90;;;0.80;;
36185;SDS011;22228;53.222;7.446;2022-12-07T07:07:03;4.47;;;0.80;;
36185;SDS011;22228;53.222;7.446;2022-12-07T07:09:23;4.83;;;1.20;;
36185;SDS011;22228;53.222;7.446;2022-12-07T07:11:45;4.93;;;0.80;;
36185;SDS011;22228;53.222;7.446;2022-12-07T07:14:05;5.80;;;1.10;;
36185;SDS011;22228;53.222;7.446;2022-12-07T07:16:25;6.67;;;1.10;;
36185;SDS011;22228;53.222;7.446;2022-12-07T07:18:47;4.90;;;0.83;;
36185;SDS011;22228;53.222;7.446;2022-12-07T07:21:08;3.90;;;0.70;;
36185;SDS011;22228;53.222;7.446;2022-12-07T07:23:28;3.87;;;0.80;;
36185;SDS011;22228;53.222;7.446;2022-12-07T07:25:49;4.80;;;1.13;;
36185;SDS011;22228;53.222;7.446;2022-12-07T07:28:09;5.07;;;0.70;;
36185;SDS011;22228;53.222;7.446;2022-12-07T07:30:30;4.57;;;0.80;;
36185;SDS011;22228;53.222;7.446;2022-12-07T07:32:51;3.13;;;0.87;;
36185;SDS011;22228;53.222;7.446;2022-12-07T07:35:12;4.57;;;0.90;;
36185;SDS011;22228;53.222;7.446;2022-12-07T07:37:33;6.03;;;0.87;;
36185;SDS011;22228;53.222;7.446;2022-12-07T07:39:54;6.60;;;0.80;;
36185;SDS011;22228;53.222;7.446;2022-12-07T07:42:14;7.10;;;1.20;;
36185;SDS011;22228;53.222;7.446;2022-12-07T07:44:36;9.43;;;1.30;;
36185;SDS011;22228;53.222;7.446;2022-12-07T07:46:56;5.77;;;1.20;;
36185;SDS011;22228;53.222;7.446;2022-12-07T07:49:17;8.30;;;1.10;;
36185;SDS011;22228;53.222;7.446;2022-12-07T07:51:39;4.90;;;1.00;;
36185;SDS011;22228;53.222;7.446;2022-12-07T07:53:59;5.80;;;1.43;;
36185;SDS011;22228;53.222;7.446;2022-12-07T07:56:20;6.00;;;1.07;;
36185;SDS011;22228;53.222;7.446;2022-12-07T07:58:41;4.23;;;0.90;;
36185;SDS011;22228;53.222;7.446;2022-12-07T08:01:04;3.83;;;1.00;;
36185;SDS011;22228;53.222;7.446;2022-12-07T08:03:25;6.07;;;1.00;;
36185;SDS011;22228;53.222;7.446;2022-12-07T08:05:46;7.23;;;1.00;;
36185;SDS011;22228;53.222;7.446;2022-12-07T08:08:08;7.33;;;0.87;;
36185;SDS011;22228;53.222;7.446;2022-12-07T08:10:28;7.13;;;1.13;;
36185;SDS011;22228;53.222;7.446;2022-12-07T08:12:50;2.77;;;0.90;;
36185;SDS011;22228;53.222;7.446;2022-12-07T08:15:30;6.27;;;1.03;;
36185;SDS011;22228;53.222;7.446;2022-12-07T08:17:50;6.03;;;1.00;;
36185;SDS011;22228;53.222;7.446;2022-12-07T08:20:11;4.90;;;1.37;;
36185;SDS011;22228;53.222;7.446;2022-12-07T08:22:31;7.20;;;1.03;;
36185;SDS011;22228;53.222;7.446;2022-12-07T08:24:53;9.53;;;1.40;;
36185;SDS011;22228;53.222;7.446;2022-12-07T08:27:14;5.13;;;1.50;;
36185;SDS011;22228;53.222;7.446;2022-12-07T08:29:34;6.47;;;1.00;;
36185;SDS011;22228;53.222;7.446;2022-12-07T08:31:54;6.57;;;1.23;;
36185;SDS011;22228;53.222;7.446;2022-12-07T08:34:15;10.10;;;1.03;;
36185;SDS011;22228;53.222;7.446;2022-12-07T08:36:35;9.43;;;1.30;;
36185;SDS011;22228;53.222;7.446;2022-12-07T08:38:56;6.67;;;1.00;;
36185;SDS011;22228;53.222;7.446;2022-12-07T08:41:18;4.50;;;1.10;;
36185;SDS011;22228;53.222;7.446;2022-12-07T08:43:38;8.07;;;1.30;;
36185;SDS011;22228;53.222;7.446;2022-12-07T08:46:02;7.13;;;1.40;;
36185;SDS011;22228;53.222;7.446;2022-12-07T08:48:26;11.73;;;1.53;;
36185;SDS011;22228;53.222;7.446;2022-12-07T08:50:47;6.97;;;1.77;;
36185;SDS011;22228;53.222;7.446;2022-12-07T08:53:08;10.83;;;1.53;;
36185;SDS011;22228;53.222;7.446;2022-12-07T08:55:29;11.47;;;1.47;;
36185;SDS011;22228;53.222;7.446;2022-12-07T08:57:51;11.93;;;6.03;;
36185;SDS011;22228;53.222;7.446;2022-12-07T09:00:12;9.13;;;1.83;;
36185;SDS011;22228;53.222;7.446;2022-12-07T09:02:33;5.93;;;1.30;;
36185;SDS011;22228;53.222;7.446;2022-12-07T09:04:53;9.90;;;1.63;;
36185;SDS011;22228;53.222;7.446;2022-12-07T09:07:14;11.13;;;1.30;;
36185;SDS011;22228;53.222;7.446;2022-12-07T09:09:36;9.30;;;2.07;;
36185;SDS011;22228;53.222;7.446;2022-12-07T09:11:56;5.53;;;1.10;;
36185;SDS011;22228;53.222;7.446;2022-12-07T09:14:18;9.93;;;2.00;;
36185;SDS011;22228;53.222;7.446;2022-12-07T09:16:39;4.87;;;1.27;;
36185;SDS011;22228;53.222;7.446;2022-12-07T09:18:59;12.03;;;2.93;;
36185;SDS011;22228;53.222;7.446;2022-12-07T09:21:20;9.33;;;2.40;;
36185;SDS011;22228;53.222;7.446;2022-12-07T09:23:40;7.17;;;2.90;;
36185;SDS011;22228;53.222;7.446;2022-12-07T09:26:01;12.50;;;5.13;;
36185;SDS011;22228;53.222;7.446;2022-12-07T09:28:23;8.23;;;1.50;;
36185;SDS011;22228;53.222;7.446;2022-12-07T09:30:46;5.00;;;1.07;;
36185;SDS011;22228;53.222;7.446;2022-12-07T09:33:10;6.63;;;1.07;;
36185;SDS011;22228;53.222;7.446;2022-12-07T09:35:31;8.53;;;1.20;;
36185;SDS011;22228;53.222;7.446;2022-12-07T09:37:51;11.13;;;1.60;;
36185;SDS011;22228;53.222;7.446;2022-12-07T09:40:12;5.17;;;1.20;;
36185;SDS011;22228;53.222;7.446;2022-12-07T09:42:34;5.70;;;1.10;;
36185;SDS011;22228;53.222;7.446;2022-12-07T09:44:58;7.63;;;1.30;;
36185;SDS011;22228;53.222;7.446;2022-12-07T09:47:21;6.07;;;1.10;;
36185;SDS011;22228;53.222;7.446;2022-12-07T09:49:41;5.20;;;1.10;;
36185;SDS011;22228;53.222;7.446;2022-12-07T09:52:02;5.37;;;1.33;;
36185;SDS011;22228;53.222;7.446;2022-12-07T09:54:39;6.17;;;0.97;;
36185;SDS011;22228;53.222;7.446;2022-12-07T09:57:03;8.50;;;1.77;;
36185;SDS011;22228;53.222;7.446;2022-12-07T09:59:23;6.90;;;1.57;;
36185;SDS011;22228;53.222;7.446;2022-12-07T10:01:44;9.33;;;1.50;;
36185;SDS011;22228;53.222;7.446;2022-12-07T10:04:10;7.90;;;1.90;;
36185;SDS011;22228;53.222;7.446;2022-12-07T10:06:33;7.50;;;1.30;;
36185;SDS011;22228;53.222;7.446;2022-12-07T10:08:54;6.47;;;0.90;;
36185;SDS011;22228;53.222;7.446;2022-12-07T10:11:14;6.73;;;1.23;;
36185;SDS011;22228;53.222;7.446;2022-12-07T10:13:40;4.00;;;1.23;;
36185;SDS011;22228;53.222;7.446;2022-12-07T10:16:02;9.27;;;1.20;;
36185;SDS011;22228;53.222;7.446;2022-12-07T10:18:27;6.77;;;1.40;;
36185;SDS011;22228;53.222;7.446;2022-12-07T10:20:59;5.43;;;1.67;;
36185;SDS011;22228;53.222;7.446;2022-12-07T10:23:21;4.10;;;0.80;;
36185;SDS011;22228;53.222;7.446;2022-12-07T10:25:42;3.53;;;0.90;;
36185;SDS011;22228;53.222;7.446;2022-12-07T10:28:10;7.33;;;0.97;;
36185;SDS011;22228;53.222;7.446;2022-12-07T10:30:45;3.40;;;0.80;;
36185;SDS011;22228;53.222;7.446;2022-12-07T10:33:15;3.60;;;0.93;;
36185;SDS011;22228;53.222;7.446;2022-12-07T10:35:47;6.27;;;1.13;;
36185;SDS011;22228;53.222;7.446;2022-12-07T10:38:15;3.90;;;1.40;;
36185;SDS011;22228;53.222;7.446;2022-12-07T10:40:39;10.03;;;1.57;;
36185;SDS011;22228;53.222;7.446;2022-12-07T10:43:00;4.40;;;1.10;;
36185;SDS011;22228;53.222;7.446;2022-12-07T10:45:21;5.43;;;1.27;;
36185;SDS011;22228;53.222;7.446;2022-12-07T10:47:46;6.93;;;1.33;;
36185;SDS011;22228;53.222;7.446;2022-12-07T10:53:31;7.23;;;0.80;;
36185;SDS011;22228;53.222;7.446;2022-12-07T10:56:29;8.90;;;1.63;;
36185;SDS011;22228;53.222;7.446;2022-12-07T10:59:10;5.60;;;0.90;;
36185;SDS011;22228;53.222;7.446;2022-12-07T11:01:43;3.50;;;0.60;;
36185;SDS011;22228;53.222;7.446;2022-12-07T11:04:15;0.67;;;0.40;;
36185;SDS011;22228;53.222;7.446;2022-12-07T11:06:44;3.90;;;0.77;;
36185;SDS011;22228;53.222;7.446;2022-12-07T11:12:16;1.43;;;0.40;;
36185;SDS011;22228;53.222;7.446;2022-12-07T11:14:47;3.67;;;0.60;;
36185;SDS011;22228;53.222;7.446;2022-12-07T11:17:16;1.60;;;0.43;;
36185;SDS011;22228;53.222;7.446;2022-12-07T11:19:48;6.70;;;1.00;;
36185;SDS011;22228;53.222;7.446;2022-12-07T11:22:16;3.57;;;0.40;;
36185;SDS011;22228;53.222;7.446;2022-12-07T11:24:44;1.37;;;0.47;;
36185;SDS011;22228;53.222;7.446;2022-12-07T11:27:13;1.40;;;0.57;;
36185;SDS011;22228;53.222;7.446;2022-12-07T11:29:49;4.70;;;0.90;;
36185;SDS011;22228;53.222;7.446;2022-12-07T11:32:27;1.17;;;0.70;;
36185;SDS011;22228;53.222;7.446;2022-12-07T11:35:03;2.10;;;0.67;;
36185;SDS011;22228;53.222;7.446;2022-12-07T11:37:31;1.57;;;0.63;;
36185;SDS011;22228;53.222;7.446;2022-12-07T11:39:54;4.67;;;0.60;;
36185;SDS011;22228;53.222;7.446;2022-12-07T11:42:22;5.33;;;0.70;;
36185;SDS011;22228;53.222;7.446;2022-12-07T11:44:47;2.17;;;0.60;;
36185;SDS011;22228;53.222;7.446;2022-12-07T11:47:13;3.10;;;0.60;;
36185;SDS011;22228;53.222;7.446;2022-12-07T11:49:40;4.90;;;0.70;;
36185;SDS011;22228;53.222;7.446;2022-12-07T11:52:04;2.63;;;1.00;;
36185;SDS011;22228;53.222;7.446;2022-12-07T11:54:32;3.90;;;0.70;;
36185;SDS011;22228;53.222;7.446;2022-12-07T11:56:59;4.43;;;0.50;;
36185;SDS011;22228;53.222;7.446;2022-12-07T11:59:25;2.53;;;0.50;;
36185;SDS011;22228;53.222;7.446;2022-12-07T12:01:53;2.53;;;0.60;;
36185;SDS011;22228;53.222;7.446;2022-12-07T12:04:27;6.00;;;0.70;;
36185;SDS011;22228;53.222;7.446;2022-12-07T12:06:54;2.00;;;0.47;;
36185;SDS011;22228;53.222;7.446;2022-12-07T12:09:15;2.03;;;0.50;;
36185;SDS011;22228;53.222;7.446;2022-12-07T12:11:43;2.83;;;0.80;;
36185;SDS011;22228;53.222;7.446;2022-12-07T12:14:21;2.73;;;0.60;;
36185;SDS011;22228;53.222;7.446;2022-12-07T12:17:02;4.87;;;0.60;;
36185;SDS011;22228;53.222;7.446;2022-12-07T12:19:37;3.47;;;0.60;;
36185;SDS011;22228;53.222;7.446;2022-12-07T12:24:52;1.43;;;0.60;;
36185;SDS011;22228;53.222;7.446;2022-12-07T12:27:18;3.70;;;0.57;;
36185;SDS011;22228;53.222;7.446;2022-12-07T12:29:50;2.87;;;1.00;;
36185;SDS011;22228;53.222;7.446;2022-12-07T12:32:14;4.73;;;0.60;;
36185;SDS011;22228;53.222;7.446;2022-12-07T12:34:41;3.37;;;1.00;;
36185;SDS011;22228;53.222;7.446;2022-12-07T12:43:27;2.80;;;0.60;;
36185;SDS011;22228;53.222;7.446;2022-12-07T12:55:13;3.13;;;0.47;;
36185;SDS011;22228;53.222;7.446;2022-12-07T12:57:39;5.30;;;0.70;;
36185;SDS011;22228;53.222;7.446;2022-12-07T13:00:00;4.00;;;0.60;;
36185;SDS011;22228;53.222;7.446;2022-12-07T13:02:23;6.37;;;0.70;;
36185;SDS011;22228;53.222;7.446;2022-12-07T13:04:51;1.27;;;0.53;;
36185;SDS011;22228;53.222;7.446;2022-12-07T13:07:13;2.50;;;0.47;;
36185;SDS011;22228;53.222;7.446;2022-12-07T13:13:02;3.70;;;0.60;;
36185;SDS011;22228;53.222;7.446;2022-12-07T13:15:44;4.73;;;0.90;;
36185;SDS011;22228;53.222;7.446;2022-12-07T13:20:49;3.47;;;0.63;;
36185;SDS011;22228;53.222;7.446;2022-12-07T13:23:16;3.47;;;0.50;;
36185;SDS011;22228;53.222;7.446;2022-12-07T13:25:44;3.20;;;1.07;;
36185;SDS011;22228;53.222;7.446;2022-12-07T13:28:13;2.63;;;0.60;;
36185;SDS011;22228;53.222;7.446;2022-12-07T13:30:40;9.77;;;1.00;;
36185;SDS011;22228;53.222;7.446;2022-12-07T13:33:08;5.67;;;0.77;;
36185;SDS011;22228;53.222;7.446;2022-12-07T13:35:31;3.57;;;0.70;;
36185;SDS011;22228;53.222;7.446;2022-12-07T13:38:02;4.90;;;0.70;;
36185;SDS011;22228;53.222;7.446;2022-12-07T13:40:36;5.97;;;0.90;;
36185;SDS011;22228;53.222;7.446;2022-12-07T13:42:58;5.30;;;0.50;;
36185;SDS011;22228;53.222;7.446;2022-12-07T13:45:21;1.80;;;0.50;;
36185;SDS011;22228;53.222;7.446;2022-12-07T13:48:04;4.27;;;0.60;;
36185;SDS011;22228;53.222;7.446;2022-12-07T13:50:26;4.17;;;0.80;;
36185;SDS011;22228;53.222;7.446;2022-12-07T13:52:49;5.00;;;1.10;;
36185;SDS011;22228;53.222;7.446;2022-12-07T13:55:13;4.10;;;1.10;;
36185;SDS011;22228;53.222;7.446;2022-12-07T13:57:36;3.63;;;1.70;;
36185;SDS011;22228;53.222;7.446;2022-12-07T14:00:04;6.47;;;1.20;;
36185;SDS011;22228;53.222;7.446;2022-12-07T14:02:53;5.33;;;1.10;;
36185;SDS011;22228;53.222;7.446;2022-12-07T14:05:22;3.77;;;1.00;;
36185;SDS011;22228;53.222;7.446;2022-12-07T14:07:54;5.60;;;1.20;;
36185;SDS011;22228;53.222;7.446;2022-12-07T14:10:25;5.33;;;1.30;;
36185;SDS011;22228;53.222;7.446;2022-12-07T14:13:22;3.60;;;1.53;;
36185;SDS011;22228;53.222;7.446;2022-12-07T14:15:58;6.73;;;1.77;;
36185;SDS011;22228;53.222;7.446;2022-12-07T14:18:24;7.17;;;1.40;;
36185;SDS011;22228;53.222;7.446;2022-12-07T14:20:50;2.37;;;1.50;;
36185;SDS011;22228;53.222;7.446;2022-12-07T14:23:43;6.50;;;1.63;;
36185;SDS011;22228;53.222;7.446;2022-12-07T14:26:29;6.77;;;1.80;;
36185;SDS011;22228;53.222;7.446;2022-12-07T14:28:52;9.30;;;1.90;;
36185;SDS011;22228;53.222;7.446;2022-12-07T14:31:35;3.67;;;1.47;;
36185;SDS011;22228;53.222;7.446;2022-12-07T14:34:10;6.80;;;1.00;;
36185;SDS011;22228;53.222;7.446;2022-12-07T14:36:34;2.67;;;0.80;;
36185;SDS011;22228;53.222;7.446;2022-12-07T14:39:25;4.43;;;0.60;;
36185;SDS011;22228;53.222;7.446;2022-12-07T14:41:49;2.57;;;0.50;;
36185;SDS011;22228;53.222;7.446;2022-12-07T14:44:15;1.67;;;0.80;;
36185;SDS011;22228;53.222;7.446;2022-12-07T14:46:47;4.30;;;0.70;;
36185;SDS011;22228;53.222;7.446;2022-12-07T14:49:17;6.03;;;0.60;;
36185;SDS011;22228;53.222;7.446;2022-12-07T14:51:38;1.93;;;0.50;;
36185;SDS011;22228;53.222;7.446;2022-12-07T14:54:00;4.07;;;0.73;;
36185;SDS011;22228;53.222;7.446;2022-12-07T14:56:20;2.60;;;0.70;;
36185;SDS011;22228;53.222;7.446;2022-12-07T14:58:52;2.20;;;1.00;;
36185;SDS011;22228;53.222;7.446;2022-12-07T15:01:24;2.73;;;0.60;;
36185;SDS011;22228;53.222;7.446;2022-12-07T15:04:13;2.50;;;0.50;;
36185;SDS011;22228;53.222;7.446;2022-12-07T15:06:34;1.27;;;0.50;;
36185;SDS011;22228;53.222;7.446;2022-12-07T15:09:05;2.27;;;0.40;;
36185;SDS011;22228;53.222;7.446;2022-12-07T15:11:26;3.53;;;0.40;;
36185;SDS011;22228;53.222;7.446;2022-12-07T15:13:46;2.87;;;0.60;;
36185;SDS011;22228;53.222;7.446;2022-12-07T15:16:25;1.43;;;0.70;;
36185;SDS011;22228;53.222;7.446;2022-12-07T15:18:49;2.20;;;0.60;;
36185;SDS011;22228;53.222;7.446;2022-12-07T15:21:11;2.90;;;0.70;;
36185;SDS011;22228;53.222;7.446;2022-12-07T15:23:34;2.67;;;0.60;;
36185;SDS011;22228;53.222;7.446;2022-12-07T15:26:09;2.53;;;0.97;;
36185;SDS011;22228;53.222;7.446;2022-12-07T15:28:30;1.83;;;0.60;;
36185;SDS011;22228;53.222;7.446;2022-12-07T15:30:51;2.77;;;0.97;;
36185;SDS011;22228;53.222;7.446;2022-12-07T15:33:12;4.77;;;1.10;;
36185;SDS011;22228;53.222;7.446;2022-12-07T15:35:33;1.97;;;0.70;;
36185;SDS011;22228;53.222;7.446;2022-12-07T15:37:54;0.80;;;0.80;;
36185;SDS011;22228;53.222;7.446;2022-12-07T15:40:15;11.73;;;3.73;;
36185;SDS011;22228;53.222;7.446;2022-12-07T15:42:36;4.07;;;0.80;;
36185;SDS011;22228;53.222;7.446;2022-12-07T15:44:57;3.30;;;0.83;;
36185;SDS011;22228;53.222;7.446;2022-12-07T15:47:22;3.27;;;1.17;;
36185;SDS011;22228;53.222;7.446;2022-12-07T15:49:43;4.03;;;1.30;;
36185;SDS011;22228;53.222;7.446;2022-12-07T15:52:04;1.73;;;0.40;;
36185;SDS011;22228;53.222;7.446;2022-12-07T15:54:27;2.00;;;0.50;;
36185;SDS011;22228;53.222;7.446;2022-12-07T15:56:48;3.93;;;0.53;;
36185;SDS011;22228;53.222;7.446;2022-12-07T15:59:09;1.97;;;0.63;;
36185;SDS011;22228;53.222;7.446;2022-12-07T16:01:29;2.93;;;0.47;;
36185;SDS011;22228;53.222;7.446;2022-12-07T16:03:50;1.23;;;0.50;;
36185;SDS011;22228;53.222;7.446;2022-12-07T16:06:11;2.40;;;0.40;;
36185;SDS011;22228;53.222;7.446;2022-12-07T16:08:31;1.80;;;0.40;;
36185;SDS011;22228;53.222;7.446;2022-12-07T16:10:53;0.60;;;0.40;;
36185;SDS011;22228;53.222;7.446;2022-12-07T16:13:14;2.10;;;0.40;;
36185;SDS011;22228;53.222;7.446;2022-12-07T16:15:37;2.03;;;0.50;;
36185;SDS011;22228;53.222;7.446;2022-12-07T16:17:58;2.07;;;0.50;;
36185;SDS011;22228;53.222;7.446;2022-12-07T16:20:18;1.50;;;0.40;;
36185;SDS011;22228;53.222;7.446;2022-12-07T16:22:39;1.67;;;0.40;;
36185;SDS011;22228;53.222;7.446;2022-12-07T16:24:59;7.47;;;1.00;;
36185;SDS011;22228;53.222;7.446;2022-12-07T16:27:21;2.27;;;0.90;;
36185;SDS011;22228;53.222;7.446;2022-12-07T16:29:41;2.03;;;0.50;;
36185;SDS011;22228;53.222;7.446;2022-12-07T16:32:02;0.97;;;0.60;;
36185;SDS011;22228;53.222;7.446;2022-12-07T16:34:22;1.57;;;0.70;;
36185;SDS011;22228;53.222;7.446;2022-12-07T16:36:43;3.70;;;0.50;;
36185;SDS011;22228;53.222;7.446;2022-12-07T16:39:04;1.70;;;0.60;;
36185;SDS011;22228;53.222;7.446;2022-12-07T16:41:25;1.80;;;0.90;;
36185;SDS011;22228;53.222;7.446;2022-12-07T16:43:47;1.43;;;0.93;;
36185;SDS011;22228;53.222;7.446;2022-12-07T16:46:07;1.57;;;0.60;;
36185;SDS011;22228;53.222;7.446;2022-12-07T16:48:28;2.20;;;0.80;;
36185;SDS011;22228;53.222;7.446;2022-12-07T16:50:48;2.80;;;0.70;;
36185;SDS011;22228;53.222;7.446;2022-12-07T16:53:12;1.33;;;1.23;;
36185;SDS011;22228;53.222;7.446;2022-12-07T16:55:35;5.07;;;1.23;;
36185;SDS011;22228;53.222;7.446;2022-12-07T16:57:55;2.60;;;1.23;;
36185;SDS011;22228;53.222;7.446;2022-12-07T17:00:18;4.57;;;1.60;;
36185;SDS011;22228;53.222;7.446;2022-12-07T17:02:39;1.53;;;0.90;;
36185;SDS011;22228;53.222;7.446;2022-12-07T17:05:00;3.43;;;0.93;;
36185;SDS011;22228;53.222;7.446;2022-12-07T17:07:20;2.53;;;0.90;;
36185;SDS011;22228;53.222;7.446;2022-12-07T17:09:41;2.43;;;1.50;;
36185;SDS011;22228;53.222;7.446;2022-12-07T17:12:01;5.97;;;2.43;;
36185;SDS011;22228;53.222;7.446;2022-12-07T17:14:23;4.23;;;2.43;;
36185;SDS011;22228;53.222;7.446;2022-12-07T17:17:03;11.07;;;2.73;;
36185;SDS011;22228;53.222;7.446;2022-12-07T17:19:24;3.47;;;1.97;;
36185;SDS011;22228;53.222;7.446;2022-12-07T17:21:45;3.43;;;2.00;;
36185;SDS011;22228;53.222;7.446;2022-12-07T17:24:08;4.60;;;1.60;;
36185;SDS011;22228;53.222;7.446;2022-12-07T17:26:29;2.43;;;1.50;;
36185;SDS011;22228;53.222;7.446;2022-12-07T17:28:50;2.57;;;1.43;;
36185;SDS011;22228;53.222;7.446;2022-12-07T17:31:12;3.13;;;1.50;;
36185;SDS011;22228;53.222;7.446;2022-12-07T17:33:35;4.70;;;1.43;;
36185;SDS011;22228;53.222;7.446;2022-12-07T17:35:55;2.63;;;1.37;;
36185;SDS011;22228;53.222;7.446;2022-12-07T17:38:16;3.50;;;0.90;;
36185;SDS011;22228;53.222;7.446;2022-12-07T17:40:36;1.20;;;1.10;;